sensor_id;sensor_type;location;lat;lon;timestamp;P1;durP1;ratioP1;P2;durP2;ratioP2
38972;SDS011;25333;50.762;4.470;2023-04-02T00:03:07;11.00;;;8.65;;
38972;SDS011;25333;50.762;4.470;2023-04-02T00:05:28;15.25;;;10.02;;
38972;SDS011;25333;50.762;4.470;2023-04-02T00:08:19;11.88;;;9.73;;
38972;SDS011;25333;50.762;4.470;2023-04-02T00:10:58;11.47;;;8.43;;
38972;SDS011;25333;50.762;4.470;2023-04-02T00:13:32;10.77;;;8.32;;
38972;SDS011;25333;50.762;4.470;2023-04-02T00:16:07;11.77;;;8.30;;
38972;SDS011;25333;50.762;4.470;2023-04-02T00:18:38;9.57;;;8.23;;
38972;SDS011;25333;50.762;4.470;2023-04-02T00:21:09;11.05;;;8.50;;
38972;SDS011;25333;50.762;4.470;2023-04-02T00:23:39;10.45;;;8.35;;
38972;SDS011;25333;50.762;4.470;2023-04-02T00:29:05;15.10;;;8.85;;
38972;SDS011;25333;50.762;4.470;2023-04-02T00:31:31;12.85;;;9.57;;
38972;SDS011;25333;50.762;4.470;2023-04-02T00:33:59;13.13;;;9.10;;
38972;SDS011;25333;50.762;4.470;2023-04-02T00:36:28;13.18;;;8.80;;
38972;SDS011;25333;50.762;4.470;2023-04-02T00:38:55;11.05;;;8.18;;
38972;SDS011;25333;50.762;4.470;2023-04-02T00:41:24;13.18;;;8.70;;
38972;SDS011;25333;50.762;4.470;2023-04-02T00:43:53;12.05;;;9.05;;
38972;SDS011;25333;50.762;4.470;2023-04-02T00:46:22;12.25;;;8.90;;
38972;SDS011;25333;50.762;4.470;2023-04-02T00:49:07;11.13;;;7.32;;
38972;SDS011;25333;50.762;4.470;2023-04-02T00:51:49;12.18;;;9.20;;
38972;SDS011;25333;50.762;4.470;2023-04-02T00:54:24;10.73;;;8.60;;
38972;SDS011;25333;50.762;4.470;2023-04-02T00:56:54;11.95;;;8.98;;
38972;SDS011;25333;50.762;4.470;2023-04-02T00:59:26;11.48;;;7.75;;
38972;SDS011;25333;50.762;4.470;2023-04-02T01:02:19;11.85;;;8.75;;
38972;SDS011;25333;50.762;4.470;2023-04-02T01:04:52;10.23;;;7.63;;
38972;SDS011;25333;50.762;4.470;2023-04-02T01:15:43;10.43;;;7.38;;
38972;SDS011;25333;50.762;4.470;2023-04-02T01:18:36;10.35;;;7.72;;
38972;SDS011;25333;50.762;4.470;2023-04-02T01:24:15;9.73;;;7.55;;
38972;SDS011;25333;50.762;4.470;2023-04-02T01:29:37;10.32;;;7.72;;
38972;SDS011;25333;50.762;4.470;2023-04-02T01:32:07;11.20;;;7.95;;
38972;SDS011;25333;50.762;4.470;2023-04-02T01:34:36;12.60;;;8.60;;
38972;SDS011;25333;50.762;4.470;2023-04-02T01:40:27;11.53;;;9.10;;
38972;SDS011;25333;50.762;4.470;2023-04-02T01:43:08;13.07;;;8.77;;
38972;SDS011;25333;50.762;4.470;2023-04-02T01:45:41;12.20;;;9.55;;
38972;SDS011;25333;50.762;4.470;2023-04-02T01:48:14;13.10;;;8.60;;
38972;SDS011;25333;50.762;4.470;2023-04-02T01:50:44;12.32;;;8.63;;
38972;SDS011;25333;50.762;4.470;2023-04-02T01:53:14;15.30;;;9.60;;
38972;SDS011;25333;50.762;4.470;2023-04-02T01:55:43;13.93;;;10.10;;
38972;SDS011;25333;50.762;4.470;2023-04-02T01:58:11;13.70;;;9.90;;
38972;SDS011;25333;50.762;4.470;2023-04-02T02:03:50;13.52;;;10.07;;
38972;SDS011;25333;50.762;4.470;2023-04-02T02:06:17;14.32;;;9.20;;
38972;SDS011;25333;50.762;4.470;2023-04-02T02:09:03;12.45;;;9.43;;
38972;SDS011;25333;50.762;4.470;2023-04-02T02:11:31;11.40;;;8.20;;
38972;SDS011;25333;50.762;4.470;2023-04-02T02:14:01;13.57;;;10.73;;
38972;SDS011;25333;50.762;4.470;2023-04-02T02:16:36;12.48;;;9.02;;
38972;SDS011;25333;50.762;4.470;2023-04-02T02:19:06;14.85;;;11.05;;
38972;SDS011;25333;50.762;4.470;2023-04-02T02:21:51;13.25;;;9.95;;
38972;SDS011;25333;50.762;4.470;2023-04-02T02:24:26;12.30;;;9.07;;
38972;SDS011;25333;50.762;4.470;2023-04-02T02:32:24;11.82;;;8.82;;
38972;SDS011;25333;50.762;4.470;2023-04-02T02:34:54;11.60;;;7.75;;
38972;SDS011;25333;50.762;4.470;2023-04-02T02:37:45;12.88;;;8.57;;
38972;SDS011;25333;50.762;4.470;2023-04-02T02:40:18;11.95;;;9.32;;
38972;SDS011;25333;50.762;4.470;2023-04-02T02:42:50;11.63;;;9.00;;
38972;SDS011;25333;50.762;4.470;2023-04-02T02:45:19;11.02;;;8.23;;
38972;SDS011;25333;50.762;4.470;2023-04-02T02:47:49;15.55;;;9.90;;
38972;SDS011;25333;50.762;4.470;2023-04-02T02:50:19;12.30;;;9.20;;
38972;SDS011;25333;50.762;4.470;2023-04-02T02:52:52;13.48;;;9.00;;
38972;SDS011;25333;50.762;4.470;2023-04-02T02:55:29;12.82;;;9.27;;
38972;SDS011;25333;50.762;4.470;2023-04-02T02:58:02;13.50;;;10.40;;
38972;SDS011;25333;50.762;4.470;2023-04-02T03:00:31;13.95;;;9.85;;
38972;SDS011;25333;50.762;4.470;2023-04-02T03:02:59;15.65;;;11.18;;
38972;SDS011;25333;50.762;4.470;2023-04-02T03:05:29;17.25;;;12.00;;
38972;SDS011;25333;50.762;4.470;2023-04-02T03:07:55;15.80;;;10.75;;
38972;SDS011;25333;50.762;4.470;2023-04-02T03:10:31;17.67;;;12.33;;
38972;SDS011;25333;50.762;4.470;2023-04-02T03:18:54;16.63;;;13.43;;
38972;SDS011;25333;50.762;4.470;2023-04-02T03:21:35;16.85;;;13.05;;
38972;SDS011;25333;50.762;4.470;2023-04-02T03:24:21;18.35;;;13.65;;
38972;SDS011;25333;50.762;4.470;2023-04-02T03:29:57;18.80;;;13.57;;
38972;SDS011;25333;50.762;4.470;2023-04-02T03:32:43;19.23;;;14.75;;
38972;SDS011;25333;50.762;4.470;2023-04-02T03:35:23;18.35;;;13.88;;
38972;SDS011;25333;50.762;4.470;2023-04-02T03:43:44;17.95;;;13.52;;
38972;SDS011;25333;50.762;4.470;2023-04-02T03:46:25;19.37;;;13.47;;
38972;SDS011;25333;50.762;4.470;2023-04-02T03:48:55;18.58;;;14.05;;
38972;SDS011;25333;50.762;4.470;2023-04-02T03:54:01;19.48;;;13.75;;
38972;SDS011;25333;50.762;4.470;2023-04-02T03:56:31;22.27;;;15.45;;
38972;SDS011;25333;50.762;4.470;2023-04-02T03:59:19;21.75;;;14.88;;
38972;SDS011;25333;50.762;4.470;2023-04-02T04:04:40;21.73;;;16.13;;
38972;SDS011;25333;50.762;4.470;2023-04-02T04:07:10;19.88;;;15.18;;
38972;SDS011;25333;50.762;4.470;2023-04-02T04:09:47;21.73;;;17.02;;
38972;SDS011;25333;50.762;4.470;2023-04-02T04:12:24;21.88;;;16.17;;
38972;SDS011;25333;50.762;4.470;2023-04-02T04:15:05;21.40;;;16.35;;
38972;SDS011;25333;50.762;4.470;2023-04-02T04:21:11;22.35;;;16.58;;
38972;SDS011;25333;50.762;4.470;2023-04-02T04:23:53;20.05;;;15.85;;
38972;SDS011;25333;50.762;4.470;2023-04-02T04:26:25;22.50;;;16.90;;
38972;SDS011;25333;50.762;4.470;2023-04-02T04:29:26;23.37;;;16.47;;
38972;SDS011;25333;50.762;4.470;2023-04-02T04:31:56;23.92;;;16.83;;
38972;SDS011;25333;50.762;4.470;2023-04-02T04:35:01;22.52;;;17.95;;
38972;SDS011;25333;50.762;4.470;2023-04-02T04:37:39;23.52;;;17.48;;
38972;SDS011;25333;50.762;4.470;2023-04-02T04:40:16;26.45;;;18.02;;
38972;SDS011;25333;50.762;4.470;2023-04-02T04:42:46;26.53;;;18.90;;
38972;SDS011;25333;50.762;4.470;2023-04-02T04:45:22;24.77;;;17.67;;
38972;SDS011;25333;50.762;4.470;2023-04-02T04:50:28;26.10;;;20.17;;
38972;SDS011;25333;50.762;4.470;2023-04-02T04:53:05;28.05;;;21.17;;
38972;SDS011;25333;50.762;4.470;2023-04-02T04:55:37;23.88;;;19.40;;
38972;SDS011;25333;50.762;4.470;2023-04-02T04:58:13;26.98;;;20.48;;
38972;SDS011;25333;50.762;4.470;2023-04-02T05:00:57;25.02;;;18.60;;
38972;SDS011;25333;50.762;4.470;2023-04-02T05:08:50;25.70;;;19.50;;
38972;SDS011;25333;50.762;4.470;2023-04-02T05:11:36;25.48;;;19.13;;
38972;SDS011;25333;50.762;4.470;2023-04-02T05:14:14;23.13;;;18.85;;
38972;SDS011;25333;50.762;4.470;2023-04-02T05:17:02;24.60;;;18.45;;
38972;SDS011;25333;50.762;4.470;2023-04-02T05:19:40;21.38;;;16.63;;
38972;SDS011;25333;50.762;4.470;2023-04-02T05:22:28;25.05;;;17.58;;
38972;SDS011;25333;50.762;4.470;2023-04-02T05:25:15;24.58;;;17.95;;
38972;SDS011;25333;50.762;4.470;2023-04-02T05:27:48;23.55;;;19.45;;
38972;SDS011;25333;50.762;4.470;2023-04-02T05:35:30;27.27;;;20.67;;
38972;SDS011;25333;50.762;4.470;2023-04-02T05:38:02;25.27;;;19.30;;
38972;SDS011;25333;50.762;4.470;2023-04-02T05:40:37;28.42;;;20.65;;
38972;SDS011;25333;50.762;4.470;2023-04-02T05:43:07;27.92;;;19.98;;
38972;SDS011;25333;50.762;4.470;2023-04-02T05:45:35;26.67;;;21.00;;
38972;SDS011;25333;50.762;4.470;2023-04-02T05:48:08;28.30;;;21.75;;
38972;SDS011;25333;50.762;4.470;2023-04-02T05:50:50;28.83;;;22.27;;
38972;SDS011;25333;50.762;4.470;2023-04-02T05:53:27;29.45;;;21.35;;
38972;SDS011;25333;50.762;4.470;2023-04-02T06:02:00;27.30;;;20.55;;
38972;SDS011;25333;50.762;4.470;2023-04-02T06:13:49;26.77;;;20.05;;
38972;SDS011;25333;50.762;4.470;2023-04-02T06:16:25;22.90;;;17.63;;
38972;SDS011;25333;50.762;4.470;2023-04-02T06:19:01;22.70;;;17.23;;
38972;SDS011;25333;50.762;4.470;2023-04-02T06:21:39;21.52;;;16.02;;
38972;SDS011;25333;50.762;4.470;2023-04-02T06:24:12;22.98;;;16.52;;
38972;SDS011;25333;50.762;4.470;2023-04-02T06:27:30;24.75;;;17.52;;
38972;SDS011;25333;50.762;4.470;2023-04-02T06:32:40;21.17;;;15.95;;
38972;SDS011;25333;50.762;4.470;2023-04-02T06:55:25;20.95;;;16.35;;
38972;SDS011;25333;50.762;4.470;2023-04-02T06:58:13;23.73;;;17.08;;
38972;SDS011;25333;50.762;4.470;2023-04-02T07:00:47;21.27;;;15.70;;
38972;SDS011;25333;50.762;4.470;2023-04-02T07:12:22;23.10;;;18.15;;
38972;SDS011;25333;50.762;4.470;2023-04-02T07:17:48;23.25;;;16.55;;
38972;SDS011;25333;50.762;4.470;2023-04-02T07:20:33;23.20;;;17.27;;
38972;SDS011;25333;50.762;4.470;2023-04-02T07:23:03;25.33;;;16.87;;
38972;SDS011;25333;50.762;4.470;2023-04-02T07:25:28;21.87;;;16.17;;
38972;SDS011;25333;50.762;4.470;2023-04-02T07:28:03;28.33;;;18.67;;
38972;SDS011;25333;50.762;4.470;2023-04-02T07:30:32;28.02;;;17.42;;
38972;SDS011;25333;50.762;4.470;2023-04-02T07:33:12;24.88;;;19.17;;
38972;SDS011;25333;50.762;4.470;2023-04-02T07:35:39;34.58;;;22.33;;
38972;SDS011;25333;50.762;4.470;2023-04-02T07:40:53;30.58;;;23.85;;
38972;SDS011;25333;50.762;4.470;2023-04-02T07:43:19;30.85;;;21.85;;
38972;SDS011;25333;50.762;4.470;2023-04-02T07:46:13;28.90;;;20.83;;
38972;SDS011;25333;50.762;4.470;2023-04-02T07:48:48;30.08;;;20.45;;
38972;SDS011;25333;50.762;4.470;2023-04-02T08:06:54;14.65;;;10.95;;
38972;SDS011;25333;50.762;4.470;2023-04-02T08:14:36;14.35;;;10.40;;
38972;SDS011;25333;50.762;4.470;2023-04-02T08:17:44;14.52;;;11.10;;
38972;SDS011;25333;50.762;4.470;2023-04-02T08:20:17;14.68;;;10.70;;
38972;SDS011;25333;50.762;4.470;2023-04-02T08:26:17;16.02;;;10.93;;
38972;SDS011;25333;50.762;4.470;2023-04-02T08:28:59;15.13;;;10.75;;
38972;SDS011;25333;50.762;4.470;2023-04-02T08:41:54;13.50;;;10.35;;
38972;SDS011;25333;50.762;4.470;2023-04-02T08:48:34;15.05;;;9.40;;
38972;SDS011;25333;50.762;4.470;2023-04-02T08:51:25;15.52;;;12.15;;
38972;SDS011;25333;50.762;4.470;2023-04-02T08:54:11;15.43;;;10.48;;
38972;SDS011;25333;50.762;4.470;2023-04-02T08:59:58;15.15;;;10.63;;
38972;SDS011;25333;50.762;4.470;2023-04-02T09:02:48;14.77;;;11.73;;
38972;SDS011;25333;50.762;4.470;2023-04-02T09:05:29;16.80;;;10.60;;
38972;SDS011;25333;50.762;4.470;2023-04-02T09:07:58;17.52;;;11.07;;
38972;SDS011;25333;50.762;4.470;2023-04-02T09:10:39;15.77;;;12.25;;
38972;SDS011;25333;50.762;4.470;2023-04-02T09:13:15;15.15;;;11.27;;
38972;SDS011;25333;50.762;4.470;2023-04-02T09:15:46;15.57;;;10.57;;
38972;SDS011;25333;50.762;4.470;2023-04-02T09:18:17;14.73;;;11.50;;
38972;SDS011;25333;50.762;4.470;2023-04-02T09:20:43;14.07;;;10.98;;
38972;SDS011;25333;50.762;4.470;2023-04-02T09:23:19;17.60;;;10.48;;
38972;SDS011;25333;50.762;4.470;2023-04-02T09:25:55;14.27;;;11.05;;
38972;SDS011;25333;50.762;4.470;2023-04-02T09:28:21;15.23;;;10.75;;
38972;SDS011;25333;50.762;4.470;2023-04-02T09:30:55;14.32;;;10.73;;
38972;SDS011;25333;50.762;4.470;2023-04-02T09:33:40;16.77;;;10.48;;
38972;SDS011;25333;50.762;4.470;2023-04-02T09:36:17;16.08;;;11.80;;
38972;SDS011;25333;50.762;4.470;2023-04-02T09:39:03;16.27;;;12.02;;
38972;SDS011;25333;50.762;4.470;2023-04-02T09:41:43;13.80;;;10.60;;
38972;SDS011;25333;50.762;4.470;2023-04-02T09:44:23;15.70;;;12.37;;
38972;SDS011;25333;50.762;4.470;2023-04-02T09:47:02;15.30;;;11.68;;
38972;SDS011;25333;50.762;4.470;2023-04-02T09:49:34;13.38;;;10.43;;
38972;SDS011;25333;50.762;4.470;2023-04-02T09:54:40;16.13;;;10.63;;
38972;SDS011;25333;50.762;4.470;2023-04-02T09:57:17;15.50;;;11.90;;
38972;SDS011;25333;50.762;4.470;2023-04-02T09:59:45;12.48;;;10.80;;
38972;SDS011;25333;50.762;4.470;2023-04-02T10:02:23;14.82;;;11.45;;
38972;SDS011;25333;50.762;4.470;2023-04-02T10:04:52;15.67;;;10.77;;
38972;SDS011;25333;50.762;4.470;2023-04-02T10:18:48;12.77;;;9.10;;
38972;SDS011;25333;50.762;4.470;2023-04-02T10:21:16;11.98;;;9.55;;
38972;SDS011;25333;50.762;4.470;2023-04-02T10:23:45;11.88;;;9.13;;
38972;SDS011;25333;50.762;4.470;2023-04-02T10:29:02;10.55;;;8.20;;
38972;SDS011;25333;50.762;4.470;2023-04-02T10:34:31;11.00;;;8.68;;
38972;SDS011;25333;50.762;4.470;2023-04-02T10:42:50;10.48;;;8.38;;
38972;SDS011;25333;50.762;4.470;2023-04-02T10:45:44;12.02;;;9.13;;
38972;SDS011;25333;50.762;4.470;2023-04-02T10:50:56;10.70;;;7.53;;
38972;SDS011;25333;50.762;4.470;2023-04-02T10:56:21;10.70;;;7.10;;
38972;SDS011;25333;50.762;4.470;2023-04-02T10:59:12;10.57;;;7.35;;
38972;SDS011;25333;50.762;4.470;2023-04-02T11:01:40;9.00;;;6.67;;
38972;SDS011;25333;50.762;4.470;2023-04-02T11:04:13;12.27;;;6.60;;
38972;SDS011;25333;50.762;4.470;2023-04-02T11:06:42;8.97;;;6.70;;
38972;SDS011;25333;50.762;4.470;2023-04-02T11:09:18;11.38;;;7.22;;
38972;SDS011;25333;50.762;4.470;2023-04-02T11:11:50;9.25;;;6.80;;
38972;SDS011;25333;50.762;4.470;2023-04-02T11:14:23;10.45;;;7.03;;
38972;SDS011;25333;50.762;4.470;2023-04-02T11:16:51;8.00;;;6.22;;
38972;SDS011;25333;50.762;4.470;2023-04-02T11:32:32;7.63;;;5.45;;
38972;SDS011;25333;50.762;4.470;2023-04-02T11:35:01;8.45;;;5.65;;
38972;SDS011;25333;50.762;4.470;2023-04-02T11:37:46;9.02;;;6.00;;
38972;SDS011;25333;50.762;4.470;2023-04-02T11:42:42;7.57;;;5.32;;
38972;SDS011;25333;50.762;4.470;2023-04-02T11:45:47;7.57;;;4.88;;
38972;SDS011;25333;50.762;4.470;2023-04-02T11:50:42;7.15;;;5.53;;
38972;SDS011;25333;50.762;4.470;2023-04-02T11:55:35;7.10;;;4.32;;
38972;SDS011;25333;50.762;4.470;2023-04-02T11:58:08;6.47;;;4.57;;
38972;SDS011;25333;50.762;4.470;2023-04-02T12:01:02;8.52;;;4.50;;
38972;SDS011;25333;50.762;4.470;2023-04-02T12:09:57;8.13;;;4.88;;
38972;SDS011;25333;50.762;4.470;2023-04-02T12:12:26;5.55;;;4.18;;
38972;SDS011;25333;50.762;4.470;2023-04-02T12:15:06;7.18;;;4.65;;
38972;SDS011;25333;50.762;4.470;2023-04-02T12:17:52;5.75;;;4.13;;
38972;SDS011;25333;50.762;4.470;2023-04-02T12:20:27;6.95;;;4.53;;
38972;SDS011;25333;50.762;4.470;2023-04-02T12:22:54;8.00;;;4.90;;
38972;SDS011;25333;50.762;4.470;2023-04-02T12:28:11;7.43;;;4.00;;
38972;SDS011;25333;50.762;4.470;2023-04-02T12:30:42;6.88;;;5.00;;
38972;SDS011;25333;50.762;4.470;2023-04-02T12:35:44;7.72;;;3.95;;
38972;SDS011;25333;50.762;4.470;2023-04-02T12:38:19;8.00;;;4.28;;
38972;SDS011;25333;50.762;4.470;2023-04-02T12:40:52;5.60;;;4.55;;
38972;SDS011;25333;50.762;4.470;2023-04-02T12:43:30;9.13;;;4.57;;
38972;SDS011;25333;50.762;4.470;2023-04-02T12:46:04;4.95;;;4.07;;
38972;SDS011;25333;50.762;4.470;2023-04-02T12:48:32;6.07;;;4.45;;
38972;SDS011;25333;50.762;4.470;2023-04-02T12:50:58;7.13;;;4.20;;
38972;SDS011;25333;50.762;4.470;2023-04-02T12:53:28;6.07;;;4.63;;
38972;SDS011;25333;50.762;4.470;2023-04-02T12:55:59;6.22;;;4.03;;
38972;SDS011;25333;50.762;4.470;2023-04-02T13:01:12;6.95;;;3.92;;
38972;SDS011;25333;50.762;4.470;2023-04-02T13:06:28;6.55;;;4.97;;
38972;SDS011;25333;50.762;4.470;2023-04-02T13:08:55;6.90;;;5.07;;
38972;SDS011;25333;50.762;4.470;2023-04-02T13:11:21;7.40;;;3.65;;
38972;SDS011;25333;50.762;4.470;2023-04-02T13:13:58;8.73;;;4.55;;
38972;SDS011;25333;50.762;4.470;2023-04-02T13:16:28;10.48;;;4.45;;
38972;SDS011;25333;50.762;4.470;2023-04-02T13:21:41;4.95;;;3.72;;
38972;SDS011;25333;50.762;4.470;2023-04-02T13:24:18;5.40;;;3.38;;
38972;SDS011;25333;50.762;4.470;2023-04-02T13:26:46;6.00;;;3.20;;
38972;SDS011;25333;50.762;4.470;2023-04-02T13:29:18;4.28;;;3.67;;
38972;SDS011;25333;50.762;4.470;2023-04-02T13:31:49;6.10;;;3.63;;
38972;SDS011;25333;50.762;4.470;2023-04-02T13:34:15;6.00;;;3.63;;
38972;SDS011;25333;50.762;4.470;2023-04-02T13:36:42;5.72;;;3.80;;
38972;SDS011;25333;50.762;4.470;2023-04-02T13:39:08;7.50;;;3.33;;
38972;SDS011;25333;50.762;4.470;2023-04-02T13:41:35;8.30;;;3.47;;
38972;SDS011;25333;50.762;4.470;2023-04-02T13:44:13;6.88;;;3.70;;
38972;SDS011;25333;50.762;4.470;2023-04-02T13:46:46;4.80;;;2.97;;
38972;SDS011;25333;50.762;4.470;2023-04-02T13:49:12;6.13;;;3.42;;
38972;SDS011;25333;50.762;4.470;2023-04-02T13:51:39;5.60;;;3.70;;
38972;SDS011;25333;50.762;4.470;2023-04-02T13:56:57;5.80;;;3.55;;
38972;SDS011;25333;50.762;4.470;2023-04-02T13:59:23;5.68;;;3.53;;
38972;SDS011;25333;50.762;4.470;2023-04-02T14:01:50;6.95;;;3.55;;
38972;SDS011;25333;50.762;4.470;2023-04-02T14:04:23;4.30;;;2.77;;
38972;SDS011;25333;50.762;4.470;2023-04-02T14:07:00;6.15;;;2.58;;
38972;SDS011;25333;50.762;4.470;2023-04-02T14:21:13;4.28;;;2.55;;
38972;SDS011;25333;50.762;4.470;2023-04-02T14:35:34;4.60;;;2.92;;
38972;SDS011;25333;50.762;4.470;2023-04-02T14:38:12;4.95;;;2.97;;
38972;SDS011;25333;50.762;4.470;2023-04-02T14:43:21;3.65;;;2.30;;
38972;SDS011;25333;50.762;4.470;2023-04-02T14:46:03;5.55;;;3.88;;
38972;SDS011;25333;50.762;4.470;2023-04-02T14:53:52;5.18;;;3.10;;
38972;SDS011;25333;50.762;4.470;2023-04-02T14:56:25;5.43;;;2.67;;
38972;SDS011;25333;50.762;4.470;2023-04-02T14:58:53;5.00;;;2.80;;
38972;SDS011;25333;50.762;4.470;2023-04-02T15:01:34;4.38;;;2.90;;
38972;SDS011;25333;50.762;4.470;2023-04-02T15:04:06;5.13;;;2.75;;
38972;SDS011;25333;50.762;4.470;2023-04-02T15:06:43;4.10;;;2.65;;
38972;SDS011;25333;50.762;4.470;2023-04-02T15:09:14;6.75;;;2.90;;
38972;SDS011;25333;50.762;4.470;2023-04-02T15:11:46;4.70;;;2.75;;
38972;SDS011;25333;50.762;4.470;2023-04-02T15:14:35;3.80;;;2.55;;
38972;SDS011;25333;50.762;4.470;2023-04-02T15:17:08;5.10;;;2.55;;
38972;SDS011;25333;50.762;4.470;2023-04-02T15:19:35;5.57;;;3.45;;
38972;SDS011;25333;50.762;4.470;2023-04-02T15:25:38;4.80;;;2.42;;
38972;SDS011;25333;50.762;4.470;2023-04-02T15:28:25;4.53;;;2.37;;
38972;SDS011;25333;50.762;4.470;2023-04-02T15:30:53;5.43;;;2.35;;
38972;SDS011;25333;50.762;4.470;2023-04-02T15:38:57;6.07;;;3.03;;
38972;SDS011;25333;50.762;4.470;2023-04-02T15:41:53;5.32;;;3.15;;
38972;SDS011;25333;50.762;4.470;2023-04-02T15:44:24;5.70;;;3.20;;
38972;SDS011;25333;50.762;4.470;2023-04-02T15:52:39;6.22;;;3.35;;
38972;SDS011;25333;50.762;4.470;2023-04-02T15:55:21;5.82;;;3.83;;
38972;SDS011;25333;50.762;4.470;2023-04-02T16:01:04;7.82;;;3.42;;
38972;SDS011;25333;50.762;4.470;2023-04-02T16:06:38;5.57;;;2.67;;
38972;SDS011;25333;50.762;4.470;2023-04-02T16:09:26;6.23;;;3.37;;
38972;SDS011;25333;50.762;4.470;2023-04-02T16:12:07;6.40;;;3.43;;
38972;SDS011;25333;50.762;4.470;2023-04-02T16:14:40;5.60;;;2.80;;
38972;SDS011;25333;50.762;4.470;2023-04-02T16:17:10;6.30;;;3.28;;
38972;SDS011;25333;50.762;4.470;2023-04-02T16:19:49;5.20;;;3.38;;
38972;SDS011;25333;50.762;4.470;2023-04-02T16:22:25;9.05;;;4.18;;
38972;SDS011;25333;50.762;4.470;2023-04-02T16:25:00;6.57;;;3.40;;
38972;SDS011;25333;50.762;4.470;2023-04-02T16:27:40;7.82;;;2.72;;
38972;SDS011;25333;50.762;4.470;2023-04-02T16:30:19;6.38;;;3.10;;
38972;SDS011;25333;50.762;4.470;2023-04-02T16:50:16;4.77;;;1.90;;
38972;SDS011;25333;50.762;4.470;2023-04-02T17:07:26;5.55;;;1.73;;
38972;SDS011;25333;50.762;4.470;2023-04-02T17:10:24;2.97;;;1.50;;
38972;SDS011;25333;50.762;4.470;2023-04-02T17:16:12;4.72;;;2.25;;
38972;SDS011;25333;50.762;4.470;2023-04-02T17:18:46;4.90;;;1.60;;
38972;SDS011;25333;50.762;4.470;2023-04-02T17:21:19;4.28;;;1.77;;
38972;SDS011;25333;50.762;4.470;2023-04-02T17:23:50;3.17;;;1.48;;
38972;SDS011;25333;50.762;4.470;2023-04-02T17:26:19;2.67;;;1.63;;
38972;SDS011;25333;50.762;4.470;2023-04-02T17:28:48;3.27;;;1.87;;
38972;SDS011;25333;50.762;4.470;2023-04-02T17:31:24;2.75;;;2.15;;
38972;SDS011;25333;50.762;4.470;2023-04-02T17:33:51;3.45;;;2.35;;
38972;SDS011;25333;50.762;4.470;2023-04-02T17:44:26;3.15;;;2.22;;
38972;SDS011;25333;50.762;4.470;2023-04-02T17:47:08;6.00;;;3.22;;
38972;SDS011;25333;50.762;4.470;2023-04-02T17:49:43;4.60;;;3.38;;
38972;SDS011;25333;50.762;4.470;2023-04-02T17:55:56;3.45;;;3.03;;
38972;SDS011;25333;50.762;4.470;2023-04-02T18:06:14;4.38;;;3.03;;
38972;SDS011;25333;50.762;4.470;2023-04-02T18:11:51;3.47;;;3.17;;
38972;SDS011;25333;50.762;4.470;2023-04-02T18:17:16;4.00;;;2.30;;
38972;SDS011;25333;50.762;4.470;2023-04-02T18:22:31;4.40;;;2.53;;
38972;SDS011;25333;50.762;4.470;2023-04-02T18:25:18;3.38;;;2.00;;
38972;SDS011;25333;50.762;4.470;2023-04-02T18:30:37;3.85;;;2.17;;
38972;SDS011;25333;50.762;4.470;2023-04-02T18:35:58;3.30;;;2.47;;
38972;SDS011;25333;50.762;4.470;2023-04-02T18:51:51;11.43;;;5.28;;
38972;SDS011;25333;50.762;4.470;2023-04-02T18:54:43;11.85;;;6.50;;
38972;SDS011;25333;50.762;4.470;2023-04-02T18:57:14;8.35;;;6.40;;
38972;SDS011;25333;50.762;4.470;2023-04-02T19:08:12;11.83;;;7.43;;
38972;SDS011;25333;50.762;4.470;2023-04-02T19:10:43;8.68;;;6.13;;
38972;SDS011;25333;50.762;4.470;2023-04-02T19:13:18;9.05;;;5.40;;
38972;SDS011;25333;50.762;4.470;2023-04-02T19:33:16;6.20;;;4.40;;
38972;SDS011;25333;50.762;4.470;2023-04-02T19:42:00;5.80;;;4.78;;
38972;SDS011;25333;50.762;4.470;2023-04-02T19:44:27;7.50;;;4.75;;
38972;SDS011;25333;50.762;4.470;2023-04-02T19:46:53;6.22;;;5.10;;
38972;SDS011;25333;50.762;4.470;2023-04-02T19:49:29;6.20;;;5.53;;
38972;SDS011;25333;50.762;4.470;2023-04-02T19:51:59;5.93;;;4.88;;
38972;SDS011;25333;50.762;4.470;2023-04-02T19:54:25;6.95;;;5.03;;
38972;SDS011;25333;50.762;4.470;2023-04-02T19:56:51;7.25;;;5.63;;
38972;SDS011;25333;50.762;4.470;2023-04-02T19:59:17;7.30;;;6.10;;
38972;SDS011;25333;50.762;4.470;2023-04-02T20:01:42;6.43;;;4.93;;
38972;SDS011;25333;50.762;4.470;2023-04-02T20:04:08;7.68;;;5.10;;
38972;SDS011;25333;50.762;4.470;2023-04-02T20:06:34;7.50;;;5.53;;
38972;SDS011;25333;50.762;4.470;2023-04-02T20:09:00;6.43;;;5.05;;
38972;SDS011;25333;50.762;4.470;2023-04-02T20:11:26;7.60;;;5.72;;
38972;SDS011;25333;50.762;4.470;2023-04-02T20:13:52;6.57;;;5.32;;
38972;SDS011;25333;50.762;4.470;2023-04-02T20:16:19;7.05;;;6.07;;
38972;SDS011;25333;50.762;4.470;2023-04-02T20:18:46;7.80;;;6.80;;
38972;SDS011;25333;50.762;4.470;2023-04-02T20:21:13;9.63;;;6.55;;
38972;SDS011;25333;50.762;4.470;2023-04-02T20:23:38;9.35;;;7.35;;
38972;SDS011;25333;50.762;4.470;2023-04-02T20:26:04;9.60;;;7.47;;
38972;SDS011;25333;50.762;4.470;2023-04-02T20:28:30;8.40;;;6.28;;
38972;SDS011;25333;50.762;4.470;2023-04-02T20:31:06;7.63;;;5.50;;
38972;SDS011;25333;50.762;4.470;2023-04-02T20:33:34;8.90;;;6.80;;
38972;SDS011;25333;50.762;4.470;2023-04-02T20:36:02;7.53;;;6.75;;
38972;SDS011;25333;50.762;4.470;2023-04-02T20:38:29;8.40;;;6.40;;
38972;SDS011;25333;50.762;4.470;2023-04-02T20:40:55;8.30;;;6.93;;
38972;SDS011;25333;50.762;4.470;2023-04-02T20:43:21;8.20;;;7.25;;
38972;SDS011;25333;50.762;4.470;2023-04-02T20:45:56;8.80;;;6.88;;
38972;SDS011;25333;50.762;4.470;2023-04-02T20:48:24;9.13;;;7.75;;
38972;SDS011;25333;50.762;4.470;2023-04-02T20:50:54;9.55;;;8.13;;
38972;SDS011;25333;50.762;4.470;2023-04-02T20:53:21;8.45;;;6.63;;
38972;SDS011;25333;50.762;4.470;2023-04-02T20:55:46;7.30;;;6.25;;
38972;SDS011;25333;50.762;4.470;2023-04-02T20:58:13;6.03;;;5.35;;
38972;SDS011;25333;50.762;4.470;2023-04-02T21:00:39;7.68;;;5.68;;
38972;SDS011;25333;50.762;4.470;2023-04-02T21:03:06;7.20;;;6.20;;
38972;SDS011;25333;50.762;4.470;2023-04-02T21:05:33;7.88;;;6.38;;
38972;SDS011;25333;50.762;4.470;2023-04-02T21:08:05;8.75;;;7.25;;
38972;SDS011;25333;50.762;4.470;2023-04-02T21:10:31;8.50;;;6.68;;
38972;SDS011;25333;50.762;4.470;2023-04-02T21:12:57;9.37;;;7.97;;
38972;SDS011;25333;50.762;4.470;2023-04-02T21:15:22;7.93;;;6.55;;
38972;SDS011;25333;50.762;4.470;2023-04-02T21:17:48;8.70;;;6.40;;
38972;SDS011;25333;50.762;4.470;2023-04-02T21:20:13;8.63;;;7.17;;
38972;SDS011;25333;50.762;4.470;2023-04-02T21:22:39;10.93;;;7.75;;
38972;SDS011;25333;50.762;4.470;2023-04-02T21:25:05;9.07;;;7.63;;
38972;SDS011;25333;50.762;4.470;2023-04-02T21:27:30;7.97;;;7.13;;
38972;SDS011;25333;50.762;4.470;2023-04-02T21:29:56;10.90;;;7.30;;
38972;SDS011;25333;50.762;4.470;2023-04-02T21:32:22;10.43;;;7.65;;
38972;SDS011;25333;50.762;4.470;2023-04-02T21:34:47;7.40;;;5.70;;
38972;SDS011;25333;50.762;4.470;2023-04-02T21:37:13;7.53;;;6.57;;
38972;SDS011;25333;50.762;4.470;2023-04-02T21:39:38;7.22;;;5.50;;
38972;SDS011;25333;50.762;4.470;2023-04-02T21:42:04;7.77;;;5.70;;
38972;SDS011;25333;50.762;4.470;2023-04-02T21:44:30;9.47;;;6.03;;
38972;SDS011;25333;50.762;4.470;2023-04-02T21:46:55;8.50;;;5.95;;
38972;SDS011;25333;50.762;4.470;2023-04-02T21:49:21;7.30;;;5.80;;
38972;SDS011;25333;50.762;4.470;2023-04-02T21:51:47;6.88;;;5.43;;
38972;SDS011;25333;50.762;4.470;2023-04-02T21:54:15;6.38;;;5.18;;
38972;SDS011;25333;50.762;4.470;2023-04-02T21:56:42;6.57;;;4.75;;